sensor_id;sensor_type;location;lat;lon;timestamp;P1;durP1;ratioP1;P2;durP2;ratioP2
65759;SDS011;52496;51.082;5.066;2024-02-26T00:00:11;7.82;;;2.83;;
65759;SDS011;52496;51.082;5.066;2024-02-26T00:02:42;5.22;;;2.47;;
65759;SDS011;52496;51.082;5.066;2024-02-26T00:05:13;3.58;;;2.03;;
65759;SDS011;52496;51.082;5.066;2024-02-26T00:07:43;4.30;;;1.98;;
65759;SDS011;52496;51.082;5.066;2024-02-26T00:10:15;4.80;;;2.33;;
65759;SDS011;52496;51.082;5.066;2024-02-26T00:12:48;3.20;;;2.05;;
65759;SDS011;52496;51.082;5.066;2024-02-26T00:15:21;6.75;;;2.75;;
65759;SDS011;52496;51.082;5.066;2024-02-26T00:18:01;4.28;;;2.42;;
65759;SDS011;52496;51.082;5.066;2024-02-26T00:20:32;6.93;;;2.60;;
65759;SDS011;52496;51.082;5.066;2024-02-26T00:23:04;4.30;;;2.42;;
65759;SDS011;52496;51.082;5.066;2024-02-26T00:25:34;4.03;;;2.33;;
65759;SDS011;52496;51.082;5.066;2024-02-26T00:28:06;6.80;;;2.17;;
65759;SDS011;52496;51.082;5.066;2024-02-26T00:30:46;5.78;;;3.33;;
65759;SDS011;52496;51.082;5.066;2024-02-26T00:33:26;7.40;;;2.70;;
65759;SDS011;52496;51.082;5.066;2024-02-26T00:35:56;3.95;;;2.22;;
65759;SDS011;52496;51.082;5.066;2024-02-26T00:38:27;3.67;;;2.00;;
65759;SDS011;52496;51.082;5.066;2024-02-26T00:41:09;3.80;;;1.98;;
65759;SDS011;52496;51.082;5.066;2024-02-26T00:43:40;4.70;;;2.20;;
65759;SDS011;52496;51.082;5.066;2024-02-26T00:46:27;3.45;;;1.90;;
65759;SDS011;52496;51.082;5.066;2024-02-26T00:48:58;3.60;;;1.95;;
65759;SDS011;52496;51.082;5.066;2024-02-26T00:51:28;4.35;;;2.08;;
65759;SDS011;52496;51.082;5.066;2024-02-26T00:53:59;5.10;;;2.33;;
65759;SDS011;52496;51.082;5.066;2024-02-26T00:56:30;5.68;;;2.00;;
65759;SDS011;52496;51.082;5.066;2024-02-26T00:59:09;4.80;;;2.33;;
65759;SDS011;52496;51.082;5.066;2024-02-26T01:01:40;3.95;;;2.40;;
65759;SDS011;52496;51.082;5.066;2024-02-26T01:04:11;4.25;;;2.05;;
65759;SDS011;52496;51.082;5.066;2024-02-26T01:06:42;6.60;;;2.33;;
65759;SDS011;52496;51.082;5.066;2024-02-26T01:12:09;5.05;;;2.20;;
65759;SDS011;52496;51.082;5.066;2024-02-26T01:14:41;4.75;;;2.47;;
65759;SDS011;52496;51.082;5.066;2024-02-26T01:17:11;5.38;;;2.10;;
65759;SDS011;52496;51.082;5.066;2024-02-26T01:19:43;5.43;;;2.80;;
65759;SDS011;52496;51.082;5.066;2024-02-26T01:22:13;6.28;;;2.75;;
65759;SDS011;52496;51.082;5.066;2024-02-26T01:24:44;8.85;;;2.78;;
65759;SDS011;52496;51.082;5.066;2024-02-26T01:27:29;3.22;;;2.05;;
65759;SDS011;52496;51.082;5.066;2024-02-26T01:29:59;3.42;;;1.80;;
65759;SDS011;52496;51.082;5.066;2024-02-26T01:32:30;4.43;;;2.10;;
65759;SDS011;52496;51.082;5.066;2024-02-26T01:35:02;3.65;;;2.22;;
65759;SDS011;52496;51.082;5.066;2024-02-26T01:37:33;5.80;;;2.40;;
65759;SDS011;52496;51.082;5.066;2024-02-26T01:40:04;4.38;;;1.92;;
65759;SDS011;52496;51.082;5.066;2024-02-26T01:42:48;3.42;;;2.17;;
65759;SDS011;52496;51.082;5.066;2024-02-26T01:45:18;6.28;;;2.50;;
65759;SDS011;52496;51.082;5.066;2024-02-26T01:47:54;6.22;;;2.45;;
65759;SDS011;52496;51.082;5.066;2024-02-26T01:50:25;3.83;;;2.20;;
65759;SDS011;52496;51.082;5.066;2024-02-26T01:53:12;4.65;;;2.20;;
65759;SDS011;52496;51.082;5.066;2024-02-26T01:55:44;4.47;;;2.47;;
65759;SDS011;52496;51.082;5.066;2024-02-26T01:58:15;2.90;;;2.20;;
65759;SDS011;52496;51.082;5.066;2024-02-26T02:00:46;4.28;;;2.10;;
65759;SDS011;52496;51.082;5.066;2024-02-26T02:03:19;3.95;;;2.15;;
65759;SDS011;52496;51.082;5.066;2024-02-26T02:05:49;4.20;;;2.10;;
65759;SDS011;52496;51.082;5.066;2024-02-26T02:08:20;2.58;;;1.90;;
65759;SDS011;52496;51.082;5.066;2024-02-26T02:10:51;4.00;;;2.40;;
65759;SDS011;52496;51.082;5.066;2024-02-26T02:13:35;3.63;;;2.20;;
65759;SDS011;52496;51.082;5.066;2024-02-26T02:19:00;3.08;;;1.88;;
65759;SDS011;52496;51.082;5.066;2024-02-26T02:21:30;4.75;;;2.70;;
65759;SDS011;52496;51.082;5.066;2024-02-26T02:24:01;4.40;;;2.53;;
65759;SDS011;52496;51.082;5.066;2024-02-26T02:26:31;8.68;;;2.70;;
65759;SDS011;52496;51.082;5.066;2024-02-26T02:29:02;6.10;;;2.35;;
65759;SDS011;52496;51.082;5.066;2024-02-26T02:31:35;6.00;;;2.38;;
65759;SDS011;52496;51.082;5.066;2024-02-26T02:34:05;4.10;;;2.50;;
65759;SDS011;52496;51.082;5.066;2024-02-26T02:36:56;4.60;;;2.95;;
65759;SDS011;52496;51.082;5.066;2024-02-26T02:39:26;6.15;;;3.15;;
65759;SDS011;52496;51.082;5.066;2024-02-26T02:42:12;5.90;;;2.38;;
65759;SDS011;52496;51.082;5.066;2024-02-26T02:44:43;6.03;;;2.70;;
65759;SDS011;52496;51.082;5.066;2024-02-26T02:47:14;4.45;;;2.72;;
65759;SDS011;52496;51.082;5.066;2024-02-26T02:49:45;3.17;;;1.95;;
65759;SDS011;52496;51.082;5.066;2024-02-26T02:52:17;5.97;;;3.08;;
65759;SDS011;52496;51.082;5.066;2024-02-26T02:54:47;6.13;;;3.47;;
65759;SDS011;52496;51.082;5.066;2024-02-26T02:57:18;5.35;;;2.88;;
65759;SDS011;52496;51.082;5.066;2024-02-26T02:59:48;7.78;;;3.20;;
65759;SDS011;52496;51.082;5.066;2024-02-26T03:02:24;5.85;;;2.80;;
65759;SDS011;52496;51.082;5.066;2024-02-26T03:04:57;5.32;;;3.22;;
65759;SDS011;52496;51.082;5.066;2024-02-26T03:07:28;4.72;;;2.35;;
65759;SDS011;52496;51.082;5.066;2024-02-26T03:09:59;6.53;;;3.38;;
65759;SDS011;52496;51.082;5.066;2024-02-26T03:12:35;5.22;;;2.70;;
65759;SDS011;52496;51.082;5.066;2024-02-26T03:15:05;5.15;;;2.88;;
65759;SDS011;52496;51.082;5.066;2024-02-26T03:17:36;5.18;;;2.67;;
65759;SDS011;52496;51.082;5.066;2024-02-26T03:20:07;4.22;;;2.70;;
65759;SDS011;52496;51.082;5.066;2024-02-26T03:22:39;4.97;;;3.00;;
65759;SDS011;52496;51.082;5.066;2024-02-26T03:25:10;4.65;;;3.08;;
65759;SDS011;52496;51.082;5.066;2024-02-26T03:27:40;5.30;;;2.90;;
65759;SDS011;52496;51.082;5.066;2024-02-26T03:30:11;5.68;;;2.85;;
65759;SDS011;52496;51.082;5.066;2024-02-26T03:32:43;5.95;;;3.20;;
65759;SDS011;52496;51.082;5.066;2024-02-26T03:35:19;5.53;;;3.35;;
65759;SDS011;52496;51.082;5.066;2024-02-26T03:37:49;6.20;;;3.75;;
65759;SDS011;52496;51.082;5.066;2024-02-26T03:40:22;4.55;;;2.67;;
65759;SDS011;52496;51.082;5.066;2024-02-26T03:42:52;6.80;;;3.47;;
65759;SDS011;52496;51.082;5.066;2024-02-26T03:45:24;7.38;;;3.35;;
65759;SDS011;52496;51.082;5.066;2024-02-26T03:47:55;5.32;;;3.10;;
65759;SDS011;52496;51.082;5.066;2024-02-26T03:50:26;8.50;;;4.03;;
65759;SDS011;52496;51.082;5.066;2024-02-26T03:52:57;6.55;;;3.55;;
65759;SDS011;52496;51.082;5.066;2024-02-26T03:55:27;7.72;;;3.20;;
65759;SDS011;52496;51.082;5.066;2024-02-26T03:57:58;6.15;;;3.58;;
65759;SDS011;52496;51.082;5.066;2024-02-26T04:00:28;8.77;;;3.63;;
65759;SDS011;52496;51.082;5.066;2024-02-26T04:03:00;6.68;;;3.70;;
65759;SDS011;52496;51.082;5.066;2024-02-26T04:05:30;6.97;;;3.70;;
65759;SDS011;52496;51.082;5.066;2024-02-26T04:08:01;8.35;;;4.22;;
65759;SDS011;52496;51.082;5.066;2024-02-26T04:10:31;11.20;;;4.10;;
65759;SDS011;52496;51.082;5.066;2024-02-26T04:13:02;8.52;;;4.43;;
65759;SDS011;52496;51.082;5.066;2024-02-26T04:15:33;9.95;;;5.50;;
65759;SDS011;52496;51.082;5.066;2024-02-26T04:18:16;9.25;;;4.85;;
65759;SDS011;52496;51.082;5.066;2024-02-26T04:20:47;8.10;;;5.18;;
65759;SDS011;52496;51.082;5.066;2024-02-26T04:23:17;9.75;;;5.45;;
65759;SDS011;52496;51.082;5.066;2024-02-26T04:25:48;11.38;;;5.57;;
65759;SDS011;52496;51.082;5.066;2024-02-26T04:28:18;9.73;;;6.30;;
65759;SDS011;52496;51.082;5.066;2024-02-26T04:30:50;15.07;;;6.78;;
65759;SDS011;52496;51.082;5.066;2024-02-26T04:33:21;10.77;;;6.13;;
65759;SDS011;52496;51.082;5.066;2024-02-26T04:35:51;9.88;;;5.80;;
65759;SDS011;52496;51.082;5.066;2024-02-26T04:38:31;9.20;;;6.43;;
65759;SDS011;52496;51.082;5.066;2024-02-26T04:41:01;10.30;;;5.60;;
65759;SDS011;52496;51.082;5.066;2024-02-26T04:43:32;9.90;;;5.63;;
65759;SDS011;52496;51.082;5.066;2024-02-26T04:46:03;9.65;;;5.70;;
65759;SDS011;52496;51.082;5.066;2024-02-26T04:48:51;8.90;;;5.28;;
65759;SDS011;52496;51.082;5.066;2024-02-26T04:51:21;8.02;;;5.38;;
65759;SDS011;52496;51.082;5.066;2024-02-26T04:53:52;9.32;;;5.28;;
65759;SDS011;52496;51.082;5.066;2024-02-26T04:56:27;8.43;;;4.93;;
65759;SDS011;52496;51.082;5.066;2024-02-26T04:58:57;12.30;;;5.80;;
65759;SDS011;52496;51.082;5.066;2024-02-26T05:06:49;6.28;;;4.90;;
65759;SDS011;52496;51.082;5.066;2024-02-26T05:09:21;8.95;;;6.10;;
65759;SDS011;52496;51.082;5.066;2024-02-26T05:11:52;10.40;;;6.03;;
65759;SDS011;52496;51.082;5.066;2024-02-26T05:14:24;9.45;;;5.60;;
65759;SDS011;52496;51.082;5.066;2024-02-26T05:16:54;7.45;;;4.82;;
65759;SDS011;52496;51.082;5.066;2024-02-26T05:19:26;8.05;;;4.90;;
65759;SDS011;52496;51.082;5.066;2024-02-26T05:21:59;8.82;;;6.10;;
65759;SDS011;52496;51.082;5.066;2024-02-26T05:24:29;8.38;;;4.75;;
65759;SDS011;52496;51.082;5.066;2024-02-26T05:27:21;8.80;;;5.47;;
65759;SDS011;52496;51.082;5.066;2024-02-26T05:29:52;10.18;;;5.47;;
65759;SDS011;52496;51.082;5.066;2024-02-26T05:32:24;6.95;;;4.65;;
65759;SDS011;52496;51.082;5.066;2024-02-26T05:34:54;8.77;;;5.07;;
65759;SDS011;52496;51.082;5.066;2024-02-26T05:37:25;10.65;;;6.90;;
65759;SDS011;52496;51.082;5.066;2024-02-26T05:39:56;8.20;;;5.70;;
65759;SDS011;52496;51.082;5.066;2024-02-26T05:42:26;9.88;;;5.70;;
65759;SDS011;52496;51.082;5.066;2024-02-26T05:44:57;8.30;;;5.57;;
65759;SDS011;52496;51.082;5.066;2024-02-26T05:47:27;9.55;;;5.63;;
65759;SDS011;52496;51.082;5.066;2024-02-26T05:50:03;8.13;;;5.20;;
65759;SDS011;52496;51.082;5.066;2024-02-26T05:52:34;7.55;;;4.60;;
65759;SDS011;52496;51.082;5.066;2024-02-26T05:55:08;9.32;;;5.50;;
65759;SDS011;52496;51.082;5.066;2024-02-26T05:57:38;10.07;;;5.50;;
65759;SDS011;52496;51.082;5.066;2024-02-26T06:00:09;8.15;;;5.25;;
65759;SDS011;52496;51.082;5.066;2024-02-26T06:02:40;9.98;;;5.22;;
65759;SDS011;52496;51.082;5.066;2024-02-26T06:05:13;8.20;;;5.60;;
65759;SDS011;52496;51.082;5.066;2024-02-26T06:07:45;7.55;;;5.03;;
65759;SDS011;52496;51.082;5.066;2024-02-26T06:10:19;8.18;;;4.82;;
65759;SDS011;52496;51.082;5.066;2024-02-26T06:12:51;8.93;;;5.18;;
65759;SDS011;52496;51.082;5.066;2024-02-26T06:15:26;6.90;;;4.60;;
65759;SDS011;52496;51.082;5.066;2024-02-26T06:17:57;7.85;;;5.50;;
65759;SDS011;52496;51.082;5.066;2024-02-26T06:20:27;8.70;;;5.75;;
65759;SDS011;52496;51.082;5.066;2024-02-26T06:22:58;9.63;;;6.18;;
65759;SDS011;52496;51.082;5.066;2024-02-26T06:25:29;8.30;;;5.40;;
65759;SDS011;52496;51.082;5.066;2024-02-26T06:27:59;8.05;;;5.60;;
65759;SDS011;52496;51.082;5.066;2024-02-26T06:30:30;14.15;;;6.47;;
65759;SDS011;52496;51.082;5.066;2024-02-26T06:33:13;9.38;;;5.85;;
65759;SDS011;52496;51.082;5.066;2024-02-26T06:35:52;12.85;;;5.88;;
65759;SDS011;52496;51.082;5.066;2024-02-26T06:38:23;10.10;;;5.95;;
65759;SDS011;52496;51.082;5.066;2024-02-26T06:40:53;8.10;;;5.72;;
65759;SDS011;52496;51.082;5.066;2024-02-26T06:43:24;10.95;;;6.80;;
65759;SDS011;52496;51.082;5.066;2024-02-26T06:45:54;10.07;;;5.75;;
65759;SDS011;52496;51.082;5.066;2024-02-26T06:48:25;10.63;;;6.43;;
65759;SDS011;52496;51.082;5.066;2024-02-26T06:50:55;9.90;;;5.80;;
65759;SDS011;52496;51.082;5.066;2024-02-26T06:53:26;9.98;;;6.03;;
65759;SDS011;52496;51.082;5.066;2024-02-26T06:55:56;12.90;;;7.07;;
65759;SDS011;52496;51.082;5.066;2024-02-26T06:58:27;9.68;;;6.30;;
65759;SDS011;52496;51.082;5.066;2024-02-26T07:00:58;10.48;;;6.35;;
65759;SDS011;52496;51.082;5.066;2024-02-26T07:03:28;9.02;;;6.40;;
65759;SDS011;52496;51.082;5.066;2024-02-26T07:06:00;11.40;;;7.28;;
65759;SDS011;52496;51.082;5.066;2024-02-26T07:08:32;10.48;;;6.72;;
65759;SDS011;52496;51.082;5.066;2024-02-26T07:11:07;11.63;;;7.03;;
65759;SDS011;52496;51.082;5.066;2024-02-26T07:13:38;10.32;;;6.47;;
65759;SDS011;52496;51.082;5.066;2024-02-26T07:16:09;10.02;;;5.68;;
65759;SDS011;52496;51.082;5.066;2024-02-26T07:18:46;12.57;;;6.93;;
65759;SDS011;52496;51.082;5.066;2024-02-26T07:21:16;10.90;;;6.47;;
65759;SDS011;52496;51.082;5.066;2024-02-26T07:23:47;9.02;;;5.45;;
65759;SDS011;52496;51.082;5.066;2024-02-26T07:26:17;10.48;;;6.72;;
65759;SDS011;52496;51.082;5.066;2024-02-26T07:28:49;11.70;;;6.53;;
65759;SDS011;52496;51.082;5.066;2024-02-26T12:33:55;9.30;;;5.55;;
65759;SDS011;52496;51.082;5.066;2024-02-26T12:36:26;8.13;;;4.90;;
65759;SDS011;52496;51.082;5.066;2024-02-26T12:38:57;9.60;;;5.85;;
65759;SDS011;52496;51.082;5.066;2024-02-26T12:41:27;10.18;;;5.65;;
65759;SDS011;52496;51.082;5.066;2024-02-26T12:44:00;8.32;;;5.97;;
65759;SDS011;52496;51.082;5.066;2024-02-26T12:46:31;11.23;;;6.10;;
65759;SDS011;52496;51.082;5.066;2024-02-26T12:49:02;9.00;;;5.50;;
65759;SDS011;52496;51.082;5.066;2024-02-26T12:51:33;11.38;;;5.75;;
65759;SDS011;52496;51.082;5.066;2024-02-26T12:57:02;10.27;;;6.07;;
65759;SDS011;52496;51.082;5.066;2024-02-26T12:59:36;10.52;;;5.95;;
65759;SDS011;52496;51.082;5.066;2024-02-26T13:02:07;11.05;;;6.30;;
65759;SDS011;52496;51.082;5.066;2024-02-26T13:04:39;11.05;;;6.90;;
65759;SDS011;52496;51.082;5.066;2024-02-26T13:07:10;12.65;;;6.60;;
65759;SDS011;52496;51.082;5.066;2024-02-26T13:09:40;8.68;;;5.97;;
65759;SDS011;52496;51.082;5.066;2024-02-26T13:12:11;11.98;;;6.47;;
65759;SDS011;52496;51.082;5.066;2024-02-26T13:14:43;11.82;;;6.63;;
65759;SDS011;52496;51.082;5.066;2024-02-26T13:17:13;9.77;;;6.57;;
65759;SDS011;52496;51.082;5.066;2024-02-26T13:19:50;12.35;;;7.63;;
65759;SDS011;52496;51.082;5.066;2024-02-26T13:22:23;14.97;;;7.90;;
65759;SDS011;52496;51.082;5.066;2024-02-26T13:24:54;8.80;;;5.75;;
65759;SDS011;52496;51.082;5.066;2024-02-26T13:27:26;11.25;;;6.70;;
65759;SDS011;52496;51.082;5.066;2024-02-26T13:32:40;11.05;;;6.40;;
65759;SDS011;52496;51.082;5.066;2024-02-26T13:35:13;11.90;;;6.82;;
65759;SDS011;52496;51.082;5.066;2024-02-26T13:37:43;11.85;;;7.20;;
65759;SDS011;52496;51.082;5.066;2024-02-26T13:40:14;12.07;;;6.63;;
65759;SDS011;52496;51.082;5.066;2024-02-26T13:42:45;12.77;;;6.90;;
65759;SDS011;52496;51.082;5.066;2024-02-26T13:45:20;15.18;;;8.50;;
65759;SDS011;52496;51.082;5.066;2024-02-26T13:47:54;11.90;;;6.22;;
65759;SDS011;52496;51.082;5.066;2024-02-26T13:50:51;10.05;;;6.00;;
65759;SDS011;52496;51.082;5.066;2024-02-26T13:53:21;13.02;;;7.00;;
65759;SDS011;52496;51.082;5.066;2024-02-26T13:55:54;12.95;;;7.65;;
65759;SDS011;52496;51.082;5.066;2024-02-26T13:58:24;12.27;;;7.55;;
65759;SDS011;52496;51.082;5.066;2024-02-26T14:01:09;14.13;;;6.85;;
65759;SDS011;52496;51.082;5.066;2024-02-26T14:03:39;10.57;;;6.65;;
65759;SDS011;52496;51.082;5.066;2024-02-26T14:06:10;12.32;;;7.00;;
65759;SDS011;52496;51.082;5.066;2024-02-26T14:08:52;13.52;;;7.40;;
65759;SDS011;52496;51.082;5.066;2024-02-26T14:11:48;10.57;;;6.22;;
65759;SDS011;52496;51.082;5.066;2024-02-26T14:14:20;11.30;;;6.22;;
65759;SDS011;52496;51.082;5.066;2024-02-26T14:16:50;13.18;;;7.80;;
65759;SDS011;52496;51.082;5.066;2024-02-26T14:19:21;9.48;;;5.90;;
65759;SDS011;52496;51.082;5.066;2024-02-26T14:21:52;11.45;;;5.88;;
65759;SDS011;52496;51.082;5.066;2024-02-26T14:24:22;11.85;;;6.30;;
65759;SDS011;52496;51.082;5.066;2024-02-26T14:26:53;11.35;;;5.93;;
65759;SDS011;52496;51.082;5.066;2024-02-26T14:29:23;12.98;;;6.03;;
65759;SDS011;52496;51.082;5.066;2024-02-26T14:31:54;15.00;;;6.35;;
65759;SDS011;52496;51.082;5.066;2024-02-26T14:34:26;11.50;;;6.07;;
65759;SDS011;52496;51.082;5.066;2024-02-26T14:36:58;13.70;;;6.78;;
65759;SDS011;52496;51.082;5.066;2024-02-26T14:39:34;11.10;;;6.32;;
65759;SDS011;52496;51.082;5.066;2024-02-26T14:42:08;11.38;;;5.75;;
65759;SDS011;52496;51.082;5.066;2024-02-26T14:44:39;12.95;;;6.20;;
65759;SDS011;52496;51.082;5.066;2024-02-26T14:47:09;13.70;;;6.55;;
65759;SDS011;52496;51.082;5.066;2024-02-26T14:49:40;10.18;;;5.53;;
65759;SDS011;52496;51.082;5.066;2024-02-26T14:52:11;10.52;;;5.53;;
65759;SDS011;52496;51.082;5.066;2024-02-26T14:54:41;12.18;;;6.90;;
65759;SDS011;52496;51.082;5.066;2024-02-26T14:57:15;11.60;;;6.43;;
65759;SDS011;52496;51.082;5.066;2024-02-26T15:02:39;14.30;;;7.13;;
65759;SDS011;52496;51.082;5.066;2024-02-26T15:05:10;12.25;;;6.63;;
65759;SDS011;52496;51.082;5.066;2024-02-26T15:07:41;11.57;;;6.85;;
65759;SDS011;52496;51.082;5.066;2024-02-26T15:10:14;11.07;;;6.60;;
65759;SDS011;52496;51.082;5.066;2024-02-26T15:12:45;13.18;;;6.88;;
65759;SDS011;52496;51.082;5.066;2024-02-26T15:15:22;11.18;;;6.65;;
65759;SDS011;52496;51.082;5.066;2024-02-26T15:17:52;12.75;;;7.53;;
65759;SDS011;52496;51.082;5.066;2024-02-26T15:20:23;13.68;;;6.85;;
65759;SDS011;52496;51.082;5.066;2024-02-26T15:22:54;11.73;;;6.75;;
65759;SDS011;52496;51.082;5.066;2024-02-26T15:25:25;9.80;;;5.28;;
65759;SDS011;52496;51.082;5.066;2024-02-26T15:27:55;10.90;;;5.32;;
65759;SDS011;52496;51.082;5.066;2024-02-26T15:30:26;11.05;;;5.78;;
65759;SDS011;52496;51.082;5.066;2024-02-26T15:33:00;10.02;;;5.60;;
65759;SDS011;52496;51.082;5.066;2024-02-26T15:35:30;8.90;;;5.05;;
65759;SDS011;52496;51.082;5.066;2024-02-26T15:38:18;9.50;;;5.50;;
65759;SDS011;52496;51.082;5.066;2024-02-26T15:40:48;9.27;;;4.70;;
65759;SDS011;52496;51.082;5.066;2024-02-26T15:43:19;10.60;;;5.53;;
65759;SDS011;52496;51.082;5.066;2024-02-26T15:45:51;12.50;;;6.18;;
65759;SDS011;52496;51.082;5.066;2024-02-26T15:48:22;11.27;;;5.78;;
65759;SDS011;52496;51.082;5.066;2024-02-26T15:50:52;10.10;;;5.57;;
65759;SDS011;52496;51.082;5.066;2024-02-26T15:53:23;10.60;;;5.97;;
65759;SDS011;52496;51.082;5.066;2024-02-26T15:56:13;7.60;;;4.22;;
65759;SDS011;52496;51.082;5.066;2024-02-26T15:58:44;12.35;;;5.53;;
65759;SDS011;52496;51.082;5.066;2024-02-26T16:01:14;11.27;;;6.13;;
65759;SDS011;52496;51.082;5.066;2024-02-26T16:03:54;10.25;;;5.55;;
65759;SDS011;52496;51.082;5.066;2024-02-26T16:06:29;10.70;;;4.88;;
65759;SDS011;52496;51.082;5.066;2024-02-26T16:09:11;8.52;;;5.10;;
65759;SDS011;52496;51.082;5.066;2024-02-26T16:11:45;12.38;;;5.32;;
65759;SDS011;52496;51.082;5.066;2024-02-26T16:17:27;9.43;;;4.32;;
65759;SDS011;52496;51.082;5.066;2024-02-26T16:20:02;8.15;;;4.53;;
65759;SDS011;52496;51.082;5.066;2024-02-26T16:22:38;9.48;;;5.20;;
65759;SDS011;52496;51.082;5.066;2024-02-26T16:25:11;9.85;;;4.95;;
65759;SDS011;52496;51.082;5.066;2024-02-26T16:27:41;9.98;;;4.68;;
65759;SDS011;52496;51.082;5.066;2024-02-26T16:30:12;8.82;;;5.07;;
65759;SDS011;52496;51.082;5.066;2024-02-26T16:32:43;11.48;;;5.97;;
65759;SDS011;52496;51.082;5.066;2024-02-26T16:35:13;9.95;;;5.43;;
65759;SDS011;52496;51.082;5.066;2024-02-26T16:37:44;9.73;;;5.15;;
65759;SDS011;52496;51.082;5.066;2024-02-26T16:40:14;10.02;;;5.28;;
65759;SDS011;52496;51.082;5.066;2024-02-26T16:42:48;9.70;;;5.70;;
65759;SDS011;52496;51.082;5.066;2024-02-26T16:45:19;12.70;;;5.63;;
65759;SDS011;52496;51.082;5.066;2024-02-26T16:47:50;8.52;;;4.47;;
65759;SDS011;52496;51.082;5.066;2024-02-26T16:50:21;8.98;;;5.20;;
65759;SDS011;52496;51.082;5.066;2024-02-26T16:52:52;10.57;;;5.18;;
65759;SDS011;52496;51.082;5.066;2024-02-26T16:55:22;8.50;;;4.30;;
65759;SDS011;52496;51.082;5.066;2024-02-26T16:57:54;9.80;;;5.15;;
65759;SDS011;52496;51.082;5.066;2024-02-26T17:00:28;10.00;;;5.25;;
65759;SDS011;52496;51.082;5.066;2024-02-26T17:02:58;9.88;;;6.00;;
65759;SDS011;52496;51.082;5.066;2024-02-26T17:05:30;10.23;;;5.20;;
65759;SDS011;52496;51.082;5.066;2024-02-26T17:08:00;11.82;;;6.05;;
65759;SDS011;52496;51.082;5.066;2024-02-26T17:10:31;12.82;;;5.35;;
65759;SDS011;52496;51.082;5.066;2024-02-26T17:13:02;8.48;;;5.18;;
65759;SDS011;52496;51.082;5.066;2024-02-26T17:15:33;14.75;;;6.32;;
65759;SDS011;52496;51.082;5.066;2024-02-26T17:18:09;11.75;;;6.18;;
65759;SDS011;52496;51.082;5.066;2024-02-26T17:20:43;8.13;;;4.83;;
65759;SDS011;52496;51.082;5.066;2024-02-26T17:23:14;13.23;;;5.75;;
65759;SDS011;52496;51.082;5.066;2024-02-26T17:25:44;10.85;;;5.80;;
65759;SDS011;52496;51.082;5.066;2024-02-26T17:28:15;9.82;;;5.47;;
65759;SDS011;52496;51.082;5.066;2024-02-26T17:30:46;10.88;;;5.70;;
65759;SDS011;52496;51.082;5.066;2024-02-26T17:33:17;10.88;;;5.63;;
65759;SDS011;52496;51.082;5.066;2024-02-26T17:35:47;10.60;;;6.03;;
65759;SDS011;52496;51.082;5.066;2024-02-26T17:38:17;10.70;;;5.82;;
65759;SDS011;52496;51.082;5.066;2024-02-26T17:40:48;12.13;;;6.10;;
65759;SDS011;52496;51.082;5.066;2024-02-26T17:43:18;12.07;;;6.35;;
65759;SDS011;52496;51.082;5.066;2024-02-26T17:45:49;12.35;;;7.10;;
65759;SDS011;52496;51.082;5.066;2024-02-26T17:48:19;8.80;;;5.28;;
65759;SDS011;52496;51.082;5.066;2024-02-26T17:50:52;10.30;;;5.68;;
65759;SDS011;52496;51.082;5.066;2024-02-26T17:53:23;11.98;;;6.43;;
65759;SDS011;52496;51.082;5.066;2024-02-26T17:55:53;10.90;;;5.88;;
65759;SDS011;52496;51.082;5.066;2024-02-26T17:58:24;11.07;;;6.50;;
65759;SDS011;52496;51.082;5.066;2024-02-26T18:00:55;13.55;;;6.95;;
65759;SDS011;52496;51.082;5.066;2024-02-26T18:03:25;13.82;;;7.05;;
65759;SDS011;52496;51.082;5.066;2024-02-26T18:05:56;14.50;;;6.78;;
65759;SDS011;52496;51.082;5.066;2024-02-26T18:08:26;14.98;;;7.43;;
65759;SDS011;52496;51.082;5.066;2024-02-26T18:10:57;14.30;;;6.90;;
65759;SDS011;52496;51.082;5.066;2024-02-26T18:13:29;13.05;;;7.50;;
65759;SDS011;52496;51.082;5.066;2024-02-26T18:15:59;14.82;;;6.47;;
65759;SDS011;52496;51.082;5.066;2024-02-26T18:18:30;15.52;;;7.20;;
65759;SDS011;52496;51.082;5.066;2024-02-26T18:21:01;12.20;;;6.22;;
65759;SDS011;52496;51.082;5.066;2024-02-26T18:23:31;12.43;;;6.55;;
65759;SDS011;52496;51.082;5.066;2024-02-26T18:26:01;13.57;;;6.78;;
65759;SDS011;52496;51.082;5.066;2024-02-26T18:28:32;14.35;;;7.78;;
65759;SDS011;52496;51.082;5.066;2024-02-26T18:31:02;14.82;;;6.65;;
65759;SDS011;52496;51.082;5.066;2024-02-26T18:33:33;12.02;;;6.55;;
65759;SDS011;52496;51.082;5.066;2024-02-26T18:36:04;12.50;;;6.93;;
65759;SDS011;52496;51.082;5.066;2024-02-26T18:38:35;13.15;;;6.40;;
65759;SDS011;52496;51.082;5.066;2024-02-26T18:41:06;13.40;;;6.25;;
65759;SDS011;52496;51.082;5.066;2024-02-26T18:43:37;12.38;;;6.45;;
65759;SDS011;52496;51.082;5.066;2024-02-26T18:46:07;12.25;;;6.07;;
65759;SDS011;52496;51.082;5.066;2024-02-26T18:48:38;12.95;;;8.02;;
65759;SDS011;52496;51.082;5.066;2024-02-26T18:51:09;10.27;;;6.20;;
65759;SDS011;52496;51.082;5.066;2024-02-26T18:53:41;14.65;;;7.45;;
65759;SDS011;52496;51.082;5.066;2024-02-26T18:59:06;12.00;;;7.05;;
65759;SDS011;52496;51.082;5.066;2024-02-26T19:01:38;12.00;;;6.95;;
65759;SDS011;52496;51.082;5.066;2024-02-26T19:04:08;14.63;;;6.72;;
65759;SDS011;52496;51.082;5.066;2024-02-26T19:06:39;12.55;;;6.82;;
65759;SDS011;52496;51.082;5.066;2024-02-26T19:09:10;11.80;;;6.78;;
65759;SDS011;52496;51.082;5.066;2024-02-26T19:11:48;13.35;;;7.07;;
65759;SDS011;52496;51.082;5.066;2024-02-26T19:14:21;16.83;;;7.03;;
65759;SDS011;52496;51.082;5.066;2024-02-26T19:16:52;12.13;;;6.28;;
65759;SDS011;52496;51.082;5.066;2024-02-26T19:19:23;12.32;;;6.68;;
65759;SDS011;52496;51.082;5.066;2024-02-26T19:21:53;13.30;;;7.18;;
65759;SDS011;52496;51.082;5.066;2024-02-26T19:24:27;16.15;;;7.68;;
65759;SDS011;52496;51.082;5.066;2024-02-26T19:26:57;14.63;;;7.20;;
65759;SDS011;52496;51.082;5.066;2024-02-26T19:29:29;12.80;;;6.75;;
65759;SDS011;52496;51.082;5.066;2024-02-26T19:32:00;14.85;;;7.65;;
65759;SDS011;52496;51.082;5.066;2024-02-26T19:34:30;12.60;;;6.28;;
65759;SDS011;52496;51.082;5.066;2024-02-26T19:37:01;16.05;;;7.50;;
65759;SDS011;52496;51.082;5.066;2024-02-26T19:39:33;12.00;;;6.95;;
65759;SDS011;52496;51.082;5.066;2024-02-26T19:42:03;13.88;;;6.28;;
65759;SDS011;52496;51.082;5.066;2024-02-26T19:44:34;11.68;;;6.28;;
65759;SDS011;52496;51.082;5.066;2024-02-26T19:47:05;13.38;;;6.97;;
65759;SDS011;52496;51.082;5.066;2024-02-26T19:49:35;11.45;;;6.75;;
65759;SDS011;52496;51.082;5.066;2024-02-26T19:52:05;12.98;;;6.78;;
65759;SDS011;52496;51.082;5.066;2024-02-26T19:54:36;11.68;;;7.15;;
65759;SDS011;52496;51.082;5.066;2024-02-26T19:57:13;13.45;;;6.55;;
65759;SDS011;52496;51.082;5.066;2024-02-26T19:59:43;10.60;;;6.45;;
65759;SDS011;52496;51.082;5.066;2024-02-26T20:02:14;12.63;;;6.50;;
65759;SDS011;52496;51.082;5.066;2024-02-26T20:04:46;11.00;;;6.10;;
65759;SDS011;52496;51.082;5.066;2024-02-26T20:07:19;14.73;;;6.45;;
65759;SDS011;52496;51.082;5.066;2024-02-26T20:09:50;14.52;;;7.53;;
65759;SDS011;52496;51.082;5.066;2024-02-26T20:12:20;13.48;;;7.22;;
65759;SDS011;52496;51.082;5.066;2024-02-26T20:14:51;13.77;;;7.35;;
65759;SDS011;52496;51.082;5.066;2024-02-26T20:17:21;13.00;;;7.25;;
65759;SDS011;52496;51.082;5.066;2024-02-26T20:19:52;14.05;;;7.55;;
65759;SDS011;52496;51.082;5.066;2024-02-26T20:22:27;14.45;;;7.47;;
65759;SDS011;52496;51.082;5.066;2024-02-26T20:30:48;14.90;;;7.82;;
65759;SDS011;52496;51.082;5.066;2024-02-26T20:33:18;12.63;;;7.15;;
65759;SDS011;52496;51.082;5.066;2024-02-26T20:35:50;15.38;;;7.53;;
65759;SDS011;52496;51.082;5.066;2024-02-26T20:38:21;13.73;;;7.05;;
65759;SDS011;52496;51.082;5.066;2024-02-26T20:41:00;15.07;;;7.68;;
65759;SDS011;52496;51.082;5.066;2024-02-26T20:43:31;14.32;;;7.78;;